MSC Mandraki — SZUH — position and weather

sailwx.info

Track history (hours):
 
Tides and Currents Weather Stations Pressure Air Temp Water Temp Dewpoint Dewpoint Depression Visibility Wind Speed Wind Dir Waves Ship Positions

MSC Mandraki

Last reported at 2014-Oct-07 18:33 UTC. Time now 2014-Oct-23 08:50 UTC.
Position N 01°12' E 103°34'.
Warning: this ship's position is 15 days out of date.

Length 294 m; draft 14.2 m.

Type: Ship. MMSI: 240265000.

Date/timePositionNaut miles runAvg speedWind from/ knotsBaromVisibWave heightAir tempDewpointWater temp
2014-Oct-07 18:33N 01°12' E 103°34'10 9.8
2014-Oct-07 17:33N 01°15' E 103°44'3 2.6
2014-Oct-07 16:32N 01°16' E 103°46'0 0.0
2014-Oct-07 15:33N 01°16' E 103°46'0 0.0
2014-Oct-07 14:33N 01°16' E 103°46'0 0.0
2014-Oct-07 13:33N 01°16' E 103°46'0 0.0
2014-Oct-07 12:33N 01°16' E 103°46'0 0.0
2014-Oct-07 11:34N 01°16' E 103°46'0 0.0
2014-Oct-07 10:33N 01°16' E 103°46'0 0.0
2014-Oct-07 09:33N 01°16' E 103°46'0 0.0
2014-Oct-07 08:33N 01°16' E 103°46'0 0.0
2014-Oct-07 07:33N 01°16' E 103°46'0 0.0
2014-Oct-07 06:33N 01°16' E 103°46'0 0.0
2014-Oct-07 05:33N 01°16' E 103°46'0 0.0
2014-Oct-07 04:33N 01°16' E 103°46'0 0.0
2014-Oct-07 03:33N 01°16' E 103°46'0 0.0
2014-Oct-07 02:33N 01°16' E 103°46'0 0.0
2014-Oct-07 01:33N 01°16' E 103°46'0 0.1
2014-Oct-07 00:33N 01°16' E 103°46'0 0.1
2014-Oct-06 23:33N 01°16' E 103°46'0 0.0
2014-Oct-06 22:33N 01°16' E 103°46'0 0.0
2014-Oct-06 21:33N 01°16' E 103°46'0 0.0
2014-Oct-06 20:33N 01°16' E 103°46'0 0.0
2014-Oct-06 19:33N 01°16' E 103°46'0 0.0
2014-Oct-06 18:33N 01°16' E 103°46'0 0.0
2014-Oct-06 17:33N 01°16' E 103°46'0 0.0
2014-Oct-06 16:33N 01°16' E 103°46'0 0.0
2014-Oct-06 15:33N 01°16' E 103°46'0 0.0
2014-Oct-06 14:33N 01°16' E 103°46'0 0.0
2014-Oct-06 13:33N 01°16' E 103°46'0 0.0
2014-Oct-06 12:33N 01°16' E 103°46'0 0.0
2014-Oct-06 11:33N 01°16' E 103°46'0 0.0
2014-Oct-06 10:33N 01°16' E 103°46'0 0.0
2014-Oct-06 09:33N 01°16' E 103°46'0 0.0
2014-Oct-06 08:33N 01°16' E 103°46'0 0.0
2014-Oct-06 07:33N 01°16' E 103°46'0 0.0
2014-Oct-06 06:33N 01°16' E 103°46'0 0.0
2014-Oct-06 05:33N 01°16' E 103°46'0 0.0
2014-Oct-06 04:33N 01°16' E 103°46'0 0.0
2014-Oct-06 03:33N 01°16' E 103°46'0 0.0
2014-Oct-06 02:33N 01°16' E 103°46'0 0.0
2014-Oct-06 01:33N 01°16' E 103°46'0 0.0
2014-Oct-06 00:33N 01°16' E 103°46'0 0.0
2014-Oct-05 23:33N 01°16' E 103°46'0 0.0
2014-Oct-05 22:33N 01°16' E 103°46'0 0.0
2014-Oct-05 21:33N 01°16' E 103°46'0 0.0
2014-Oct-05 20:33N 01°16' E 103°46'0 0.0
2014-Oct-05 19:33N 01°16' E 103°46'0 0.0
2014-Oct-05 18:33N 01°16' E 103°46'0 0.0
2014-Oct-05 17:33N 01°16' E 103°46'0 0.3
2014-Oct-05 16:33N 01°16' E 103°47'5 4.9
2014-Oct-05 15:32N 01°12' E 103°50'7 7.4
2014-Oct-05 14:33N 01°15' E 103°57'8 7.8
2014-Oct-05 13:32N 01°16' E 104°04'  
Track history (hours):
 
Tides and Currents Weather Stations Pressure Air Temp Water Temp Dewpoint Dewpoint Depression Visibility Wind Speed Wind Dir Waves Ship Positions

MSC Mandraki

Last reported at 2014-Oct-07 18:33 UTC. Time now 2014-Oct-23 08:50 UTC.
Position N 01°12' E 103°34'.
Warning: this ship's position is 15 days out of date.

Length 294 m; draft 14.2 m.

Type: Ship. MMSI: 240265000.

Date/timePositionNaut miles runAvg speedWind from/ knotsBaromVisibWave heightAir tempDewpointWater temp
2014-Oct-07 18:33N 01°12' E 103°34'10 9.8
2014-Oct-07 17:33N 01°15' E 103°44'3 2.6
2014-Oct-07 16:32N 01°16' E 103°46'0 0.0
2014-Oct-07 15:33N 01°16' E 103°46'0 0.0
2014-Oct-07 14:33N 01°16' E 103°46'0 0.0
2014-Oct-07 13:33N 01°16' E 103°46'0 0.0
2014-Oct-07 12:33N 01°16' E 103°46'0 0.0
2014-Oct-07 11:34N 01°16' E 103°46'0 0.0
2014-Oct-07 10:33N 01°16' E 103°46'0 0.0
2014-Oct-07 09:33N 01°16' E 103°46'0 0.0
2014-Oct-07 08:33N 01°16' E 103°46'0 0.0
2014-Oct-07 07:33N 01°16' E 103°46'0 0.0
2014-Oct-07 06:33N 01°16' E 103°46'0 0.0
2014-Oct-07 05:33N 01°16' E 103°46'0 0.0
2014-Oct-07 04:33N 01°16' E 103°46'0 0.0
2014-Oct-07 03:33N 01°16' E 103°46'0 0.0
2014-Oct-07 02:33N 01°16' E 103°46'0 0.0
2014-Oct-07 01:33N 01°16' E 103°46'0 0.1
2014-Oct-07 00:33N 01°16' E 103°46'0 0.1
2014-Oct-06 23:33N 01°16' E 103°46'0 0.0
2014-Oct-06 22:33N 01°16' E 103°46'0 0.0
2014-Oct-06 21:33N 01°16' E 103°46'0 0.0
2014-Oct-06 20:33N 01°16' E 103°46'0 0.0
2014-Oct-06 19:33N 01°16' E 103°46'0 0.0
2014-Oct-06 18:33N 01°16' E 103°46'0 0.0
2014-Oct-06 17:33N 01°16' E 103°46'0 0.0
2014-Oct-06 16:33N 01°16' E 103°46'0 0.0
2014-Oct-06 15:33N 01°16' E 103°46'0 0.0
2014-Oct-06 14:33N 01°16' E 103°46'0 0.0
2014-Oct-06 13:33N 01°16' E 103°46'0 0.0
2014-Oct-06 12:33N 01°16' E 103°46'0 0.0
2014-Oct-06 11:33N 01°16' E 103°46'0 0.0
2014-Oct-06 10:33N 01°16' E 103°46'0 0.0
2014-Oct-06 09:33N 01°16' E 103°46'0 0.0
2014-Oct-06 08:33N 01°16' E 103°46'0 0.0
2014-Oct-06 07:33N 01°16' E 103°46'0 0.0
2014-Oct-06 06:33N 01°16' E 103°46'0 0.0
2014-Oct-06 05:33N 01°16' E 103°46'0 0.0
2014-Oct-06 04:33N 01°16' E 103°46'0 0.0
2014-Oct-06 03:33N 01°16' E 103°46'0 0.0
2014-Oct-06 02:33N 01°16' E 103°46'0 0.0
2014-Oct-06 01:33N 01°16' E 103°46'0 0.0
2014-Oct-06 00:33N 01°16' E 103°46'0 0.0
2014-Oct-05 23:33N 01°16' E 103°46'0 0.0
2014-Oct-05 22:33N 01°16' E 103°46'0 0.0
2014-Oct-05 21:33N 01°16' E 103°46'0 0.0
2014-Oct-05 20:33N 01°16' E 103°46'0 0.0
2014-Oct-05 19:33N 01°16' E 103°46'0 0.0
2014-Oct-05 18:33N 01°16' E 103°46'0 0.0
2014-Oct-05 17:33N 01°16' E 103°46'0 0.3
2014-Oct-05 16:33N 01°16' E 103°47'5 4.9
2014-Oct-05 15:32N 01°12' E 103°50'7 7.4
2014-Oct-05 14:33N 01°15' E 103°57'8 7.8
2014-Oct-05 13:32N 01°16' E 104°04'  

Dump ship's entire track history